Time;durP1;ratioP1;P1;durP2;ratioP2;P2;SDS_P1;SDS_P2;PMS_P1;PMS_P2;Temp;Humidity;BMP_temperature;BMP_pressure;BME280_temperature;BME280_humidity;BME280_pressure;Samples;Min_cycle;Max_cycle;Signal;HPM_P1;HPM_P2
2022/07/02 00:02:24;;;;;;;6.57;3.20;;;;;;;15.57;100.00;102144.84;4968329;28;20050;-63
2022/07/02 00:05:03;;;;;;;8.57;3.47;;;;;;;15.55;100.00;102141.53;4969009;28;20173;-64
2022/07/02 00:07:30;;;;;;;6.70;4.25;;;;;;;15.47;100.00;102134.31;4953585;28;20050;-64
2022/07/02 00:09:58;;;;;;;6.85;4.57;;;;;;;15.45;100.00;102138.94;4949014;28;20589;-63
2022/07/02 00:12:27;;;;;;;10.13;4.33;;;;;;;15.43;100.00;102146.19;4957651;28;20624;-64
2022/07/02 00:14:57;;;;;;;7.22;4.07;;;;;;;15.42;100.00;102139.22;4967356;28;20276;-64
2022/07/02 00:17:24;;;;;;;5.50;3.80;;;;;;;15.40;100.00;102141.16;4961606;28;20050;-65
2022/07/02 00:19:52;;;;;;;5.68;3.75;;;;;;;15.39;100.00;102142.16;4965301;28;20062;-63
2022/07/02 00:22:19;;;;;;;7.80;3.88;;;;;;;15.35;100.00;102146.06;4964864;28;20046;-64
2022/07/02 00:24:46;;;;;;;6.55;3.63;;;;;;;15.32;100.00;102136.59;4956481;28;20493;-64
2022/07/02 00:27:14;;;;;;;4.65;3.60;;;;;;;15.35;100.00;102149.53;4967317;28;20051;-65
2022/07/02 00:30:01;;;;;;;9.70;3.45;;;;;;;15.35;100.00;102140.78;4962387;28;20051;-64
2022/07/02 00:32:33;;;;;;;5.40;3.10;;;;;;;15.29;100.00;102144.84;4967884;28;20053;-64
2022/07/02 00:35:08;;;;;;;5.97;3.55;;;;;;;15.22;100.00;102141.94;4961696;28;20062;-64
2022/07/02 00:37:37;;;;;;;5.97;3.65;;;;;;;15.22;100.00;102146.38;4962499;28;20061;-63
2022/07/02 00:40:06;;;;;;;5.00;3.42;;;;;;;15.17;100.00;102143.34;4959531;28;20057;-64
2022/07/02 00:42:34;;;;;;;7.78;3.58;;;;;;;15.14;100.00;102136.53;4967683;28;20043;-64
2022/07/02 00:45:01;;;;;;;5.30;3.30;;;;;;;15.12;100.00;102135.84;4968204;28;20517;-64
2022/07/02 00:47:29;;;;;;;5.13;3.65;;;;;;;15.09;100.00;102132.66;4960745;28;20064;-64
2022/07/02 00:49:56;;;;;;;5.47;3.53;;;;;;;15.02;100.00;102130.59;4967296;28;20050;-64
2022/07/02 00:52:22;;;;;;;5.85;3.80;;;;;;;15.00;100.00;102137.00;4959847;28;20050;-64
2022/07/02 00:54:49;;;;;;;9.40;6.18;;;;;;;14.97;100.00;102130.19;4970663;28;20051;-64
2022/07/02 00:57:16;;;;;;;9.52;5.38;;;;;;;14.96;100.00;102135.63;4964849;28;20055;-64
2022/07/02 00:59:43;;;;;;;7.68;4.05;;;;;;;14.89;100.00;102135.34;4964708;28;20081;-64
2022/07/02 01:02:10;;;;;;;6.03;3.78;;;;;;;14.89;100.00;102129.25;4970845;28;20046;-63
2022/07/02 01:04:36;;;;;;;6.90;3.83;;;;;;;14.84;100.00;102129.69;4953645;28;20420;-64
2022/07/02 01:07:07;;;;;;;5.50;3.50;;;;;;;14.84;100.00;102124.41;4963322;28;20077;-65
2022/07/02 01:12:24;;;;;;;5.65;3.53;;;;;;;14.81;100.00;102122.84;4970347;28;20069;-64
2022/07/02 01:14:52;;;;;;;8.10;3.50;;;;;;;14.81;100.00;102122.84;4962465;28;20138;-63
2022/07/02 01:17:18;;;;;;;13.63;3.58;;;;;;;14.78;100.00;102112.59;4971280;28;20371;-64
2022/07/02 01:19:45;;;;;;;8.27;3.78;;;;;;;14.76;100.00;102116.31;4950320;28;20059;-64
2022/07/02 01:22:17;;;;;;;6.07;3.00;;;;;;;14.73;100.00;102114.00;4970684;28;20063;-64
2022/07/02 01:24:45;;;;;;;7.03;3.53;;;;;;;14.70;100.00;102117.75;4968779;28;20134;-64
2022/07/02 01:27:12;;;;;;;4.30;2.90;;;;;;;14.71;100.00;102102.72;4965112;28;20061;-64
2022/07/02 01:29:39;;;;;;;5.78;3.45;;;;;;;14.71;100.00;102110.66;4971430;28;20121;-63
2022/07/02 01:32:07;;;;;;;6.03;3.40;;;;;;;14.71;100.00;102113.28;4949511;28;20415;-63
2022/07/02 01:34:38;;;;;;;6.45;3.22;;;;;;;14.70;100.00;102116.91;4966672;28;20057;-63
2022/07/02 01:37:13;;;;;;;5.65;3.30;;;;;;;14.66;100.00;102110.25;4958021;28;20050;-63
2022/07/02 01:39:41;;;;;;;5.50;3.35;;;;;;;14.60;100.00;102109.00;4965735;28;20515;-63
2022/07/02 01:42:08;;;;;;;4.40;3.60;;;;;;;14.55;100.00;102108.56;4971250;28;20039;-63
2022/07/02 01:44:36;;;;;;;4.38;3.40;;;;;;;14.52;100.00;102119.41;4962854;28;20078;-63
2022/07/02 01:47:05;;;;;;;7.13;3.50;;;;;;;14.47;100.00;102124.28;4962441;28;20511;-64
2022/07/02 01:49:32;;;;;;;7.60;3.55;;;;;;;14.45;100.00;102124.41;4960576;28;20419;-64
2022/07/02 01:51:59;;;;;;;7.63;3.67;;;;;;;14.42;100.00;102128.16;4970732;28;20047;-64
2022/07/02 01:54:26;;;;;;;8.13;3.47;;;;;;;14.40;100.00;102124.00;4966279;28;20393;-64
2022/07/02 01:56:52;;;;;;;6.15;3.70;;;;;;;14.36;100.00;102122.59;4951614;28;20051;-64
2022/07/02 01:59:19;;;;;;;7.85;3.78;;;;;;;14.33;100.00;102134.28;4968594;28;20411;-64
2022/07/02 02:01:46;;;;;;;5.10;3.80;;;;;;;14.28;100.00;102120.66;4957019;28;20057;-64
2022/07/02 02:04:12;;;;;;;7.15;3.88;;;;;;;14.29;100.00;102126.75;4970869;28;20042;-63
2022/07/02 02:06:39;;;;;;;8.27;3.70;;;;;;;14.22;100.00;102122.03;4965652;28;20149;-63
2022/07/02 02:09:06;;;;;;;4.05;3.47;;;;;;;14.23;100.00;102121.09;4970507;28;20067;-63
2022/07/02 02:11:33;;;;;;;5.25;3.15;;;;;;;14.22;100.00;102121.22;4963565;28;20050;-63
2022/07/02 02:14:00;;;;;;;6.30;3.58;;;;;;;14.22;100.00;102123.84;4962424;28;20054;-63
2022/07/02 02:16:28;;;;;;;6.63;3.50;;;;;;;14.23;100.00;102123.72;4967369;28;20059;-63
2022/07/02 02:18:56;;;;;;;;;;;;;;;14.20;100.00;102121.34;4965704;28;20120;-64
2022/07/02 02:21:24;;;;;;;7.37;3.90;;;;;;;14.14;100.00;102129.81;4960209;28;19932;-64
2022/07/02 02:23:51;;;;;;;6.75;3.90;;;;;;;14.11;100.00;102127.44;4957485;28;20293;-64
2022/07/02 02:26:17;;;;;;;6.55;3.58;;;;;;;14.12;100.00;102120.41;4965651;28;20078;-64
2022/07/02 02:28:44;;;;;;;6.50;4.03;;;;;;;14.12;100.00;102123.03;4962529;28;20102;-64
2022/07/02 02:31:10;;;;;;;5.55;4.00;;;;;;;14.08;100.00;102119.00;4964520;28;20490;-64
2022/07/02 02:33:37;;;;;;;7.78;3.90;;;;;;;14.04;100.00;102116.63;4960925;28;20078;-63
2022/07/02 02:36:04;;;;;;;5.18;3.78;;;;;;;14.00;100.00;102112.59;4962073;28;20059;-64
2022/07/02 02:38:30;;;;;;;5.13;3.60;;;;;;;13.98;100.00;102109.25;4970701;28;20042;-63
2022/07/02 02:40:57;;;;;;;7.47;3.72;;;;;;;13.98;100.00;102117.19;4959193;28;20078;-64
2022/07/02 02:43:23;;;;;;;5.80;3.30;;;;;;;13.99;100.00;102123.28;4966201;28;20050;-65
2022/07/02 02:45:50;;;;;;;6.97;3.47;;;;;;;13.93;100.00;102119.38;4970553;28;20415;-64
2022/07/02 02:48:17;;;;;;;4.15;3.47;;;;;;;13.85;100.00;102116.59;4959244;28;20054;-63
2022/07/02 02:50:43;;;;;;;5.93;3.53;;;;;;;13.84;100.00;102117.59;4970804;28;20796;-64
2022/07/02 02:53:10;;;;;;;5.32;3.75;;;;;;;13.80;100.00;102121.47;4961221;28;20051;-63
2022/07/02 02:55:36;;;;;;;7.00;4.10;;;;;;;13.78;100.00;102132.16;4961128;28;20717;-64
2022/07/02 02:58:03;;;;;;;8.18;3.30;;;;;;;13.79;100.00;102133.78;4961336;28;20050;-63
2022/07/02 03:00:29;;;;;;;8.50;4.00;;;;;;;13.77;100.00;102140.19;4959171;28;20051;-64
2022/07/02 03:02:56;;;;;;;8.38;3.50;;;;;;;13.76;100.00;102135.88;4968134;28;20077;-63
2022/07/02 03:05:23;;;;;;;6.95;3.50;;;;;;;13.74;100.00;102132.53;4963336;28;20134;-64
2022/07/02 03:07:49;;;;;;;4.45;3.35;;;;;;;13.72;100.00;102126.56;4965901;28;20055;-63
2022/07/02 03:10:16;;;;;;;5.28;3.58;;;;;;;13.71;100.00;102127.53;4958143;28;20105;-64
2022/07/02 03:12:42;;;;;;;4.82;3.85;;;;;;;13.69;100.00;102130.31;4955385;28;20055;-63
2022/07/02 03:15:09;;;;;;;6.88;3.85;;;;;;;13.63;100.00;102136.94;4968290;28;20061;-63
2022/07/02 03:17:36;;;;;;;6.03;3.28;;;;;;;13.68;100.00;102140.97;4960756;28;20086;-63
2022/07/02 03:20:03;;;;;;;5.57;3.55;;;;;;;13.68;100.00;102144.47;4970184;28;20418;-64
2022/07/02 03:22:29;;;;;;;6.78;3.80;;;;;;;13.68;100.00;102138.34;4947709;28;20049;-64
2022/07/02 03:24:56;;;;;;;6.32;3.80;;;;;;;13.71;100.00;102148.63;4957916;28;20070;-64
2022/07/02 03:27:22;;;;;;;5.50;4.03;;;;;;;13.68;100.00;102141.84;4956835;28;20058;-65
2022/07/02 03:29:49;;;;;;;7.35;4.07;;;;;;;13.67;100.00;102153.34;4968213;28;20059;-63
2022/07/02 03:32:16;;;;;;;4.65;4.03;;;;;;;13.65;100.00;102139.47;4969139;28;20253;-63
2022/07/02 03:34:42;;;;;;;4.15;3.42;;;;;;;13.68;100.00;102149.75;4958932;28;20067;-64
2022/07/02 03:37:09;;;;;;;5.88;3.78;;;;;;;13.70;100.00;102153.09;4963940;28;20058;-63
2022/07/02 03:39:36;;;;;;;6.75;4.32;;;;;;;13.71;100.00;102165.28;4960957;28;20063;-63
2022/07/02 03:42:02;;;;;;;5.70;4.05;;;;;;;13.76;100.00;102165.72;4969709;28;20057;-63
2022/07/02 03:44:29;;;;;;;6.05;3.90;;;;;;;13.79;100.00;102154.91;4963001;28;20047;-62
2022/07/02 03:46:55;;;;;;;8.18;4.45;;;;;;;13.84;100.00;102162.41;4949377;28;20062;-64
2022/07/02 03:49:22;;;;;;;9.45;4.85;;;;;;;13.90;100.00;102164.50;4964235;28;20050;-63
2022/07/02 03:51:48;;;;;;;7.72;4.55;;;;;;;13.92;100.00;102152.03;4959034;28;20051;-64
2022/07/02 03:54:15;;;;;;;7.70;4.30;;;;;;;13.97;100.00;102157.69;4966545;28;20439;-65
2022/07/02 03:56:41;;;;;;;5.43;4.20;;;;;;;14.04;100.00;102166.75;4962101;28;20053;-64
2022/07/02 03:59:07;;;;;;;6.88;4.70;;;;;;;14.04;100.00;102158.00;4968916;28;20483;-64
2022/07/02 04:01:34;;;;;;;8.43;4.70;;;;;;;14.07;100.00;102163.00;4956600;28;20046;-63
2022/07/02 04:04:00;;;;;;;7.40;4.40;;;;;;;14.08;100.00;102162.03;4966084;28;20058;-62
2022/07/02 04:06:27;;;;;;;6.43;4.00;;;;;;;14.06;100.00;102165.78;4969119;28;20426;-64
2022/07/02 04:08:53;;;;;;;7.28;4.05;;;;;;;14.07;100.00;102167.44;4958606;28;20047;-64
2022/07/02 04:11:19;;;;;;;5.82;3.50;;;;;;;14.06;100.00;102179.00;4967829;28;20054;-63
2022/07/02 04:13:46;;;;;;;9.45;4.43;;;;;;;14.06;100.00;102177.19;4960960;28;20061;-63
2022/07/02 04:16:12;;;;;;;5.72;4.65;;;;;;;14.07;100.00;102180.63;4957045;28;20138;-63
2022/07/02 04:18:40;;;;;;;10.73;4.93;;;;;;;14.10;100.00;102181.22;4963499;28;20055;-62
2022/07/02 04:21:08;;;;;;;7.15;4.43;;;;;;;14.13;100.00;102177.44;4968195;28;20055;-65
2022/07/02 04:23:34;;;;;;;6.72;4.55;;;;;;;14.16;100.00;102174.56;4967112;28;20046;-64
2022/07/02 04:26:01;;;;;;;8.95;4.60;;;;;;;14.17;100.00;102176.19;4929660;28;20053;-64
2022/07/02 04:28:27;;;;;;;7.07;4.30;;;;;;;14.15;100.00;102176.38;4966750;28;20047;-64
2022/07/02 04:30:54;;;;;;;8.98;5.47;;;;;;;14.16;100.00;102171.91;4961904;28;20521;-64
2022/07/02 04:33:20;;;;;;;6.57;4.68;;;;;;;14.18;100.00;102167.34;4968149;28;20053;-63
2022/07/02 04:35:46;;;;;;;7.13;5.07;;;;;;;14.23;100.00;102168.59;4960506;28;20055;-64
2022/07/02 04:38:13;;;;;;;7.32;4.80;;;;;;;14.25;100.00;102173.75;4951784;28;20047;-64
2022/07/02 04:40:39;;;;;;;6.82;4.97;;;;;;;14.30;100.00;102163.59;4966783;28;20055;-65
2022/07/02 04:43:06;;;;;;;9.15;4.75;;;;;;;14.37;100.00;102170.00;4962088;28;20043;-63
2022/07/02 04:45:32;;;;;;;10.07;5.25;;;;;;;14.43;100.00;102168.59;4968497;28;20054;-63
2022/07/02 04:47:59;;;;;;;7.75;4.95;;;;;;;14.54;100.00;102170.25;4962324;28;20055;-63
2022/07/02 04:50:26;;;;;;;9.77;5.13;;;;;;;14.65;100.00;102166.69;4965034;28;20484;-64
2022/07/02 04:52:52;;;;;;;8.18;5.32;;;;;;;14.73;100.00;102162.34;4962849;28;20063;-64
2022/07/02 04:55:18;;;;;;;11.15;5.43;;;;;;;14.78;100.00;102168.06;4958291;28;20057;-65
2022/07/02 04:57:45;;;;;;;10.07;5.00;;;;;;;14.83;100.00;102168.44;4957669;28;20055;-63
2022/07/02 05:00:12;;;;;;;7.13;5.40;;;;;;;14.91;100.00;102172.19;4961704;28;20049;-62
2022/07/02 05:02:38;;;;;;;7.20;4.97;;;;;;;14.98;100.00;102166.22;4965724;28;20065;-63
2022/07/02 05:05:05;;;;;;;9.52;5.35;;;;;;;15.06;100.00;102162.84;4957439;28;20063;-63
2022/07/02 05:07:32;;;;;;;9.43;5.22;;;;;;;15.12;100.00;102167.56;4963088;28;20054;-64
2022/07/02 05:09:59;;;;;;;7.72;4.97;;;;;;;15.18;100.00;102171.44;4961341;28;20054;-62
2022/07/02 05:12:25;;;;;;;7.32;5.35;;;;;;;15.19;100.00;102171.31;4962949;28;20050;-64
2022/07/02 05:14:52;;;;;;;13.00;4.95;;;;;;;15.25;100.00;102174.34;4965941;28;20058;-63
2022/07/02 05:17:18;;;;;;;8.45;5.20;;;;;;;15.30;100.00;102175.56;4962270;28;20053;-63
2022/07/02 05:19:45;;;;;;;7.22;4.40;;;;;;;15.34;100.00;102173.47;4963555;28;20059;-63
2022/07/02 05:22:11;;;;;;;6.93;4.45;;;;;;;15.40;100.00;102170.25;4963156;28;20054;-63
2022/07/02 05:24:37;;;;;;;6.13;4.25;;;;;;;15.45;100.00;102161.91;4961530;28;20045;-63
2022/07/02 05:27:05;;;;;;;7.38;4.50;;;;;;;15.46;100.00;102168.84;4949764;28;20482;-63
2022/07/02 05:29:31;;;;;;;7.55;4.22;;;;;;;15.53;100.00;102172.56;4954034;28;20051;-64
2022/07/02 05:31:58;;;;;;;8.57;4.70;;;;;;;15.56;100.00;102173.13;4963300;28;20139;-64
2022/07/02 05:34:25;;;;;;;8.07;4.40;;;;;;;15.58;100.00;102179.09;4951044;28;20051;-64
2022/07/02 05:36:51;;;;;;;8.77;4.53;;;;;;;15.60;100.00;102168.34;4957379;28;20055;-64
2022/07/02 05:39:17;;;;;;;10.50;4.88;;;;;;;15.63;100.00;102176.81;4970360;28;20050;-64
2022/07/02 05:41:44;;;;;;;10.45;4.90;;;;;;;15.66;100.00;102177.50;4965002;28;20068;-64
2022/07/02 05:44:10;;;;;;;8.38;4.30;;;;;;;15.76;100.00;102178.34;4969628;28;20341;-64
2022/07/02 05:46:37;;;;;;;11.30;4.53;;;;;;;15.84;100.00;102174.94;4960586;28;20459;-64
2022/07/02 05:49:03;;;;;;;8.90;4.50;;;;;;;15.90;100.00;102175.19;4949223;28;20051;-64
2022/07/02 05:51:30;;;;;;;7.75;4.03;;;;;;;16.04;100.00;102187.09;4964366;28;20042;-64
2022/07/02 05:54:00;;;;;;;6.15;3.78;;;;;;;16.19;100.00;102177.66;4971903;28;20097;-64
2022/07/02 05:56:26;;;;;;;7.95;3.55;;;;;;;16.27;100.00;102176.91;4970831;28;20062;-64
2022/07/02 05:58:53;;;;;;;9.98;3.35;;;;;;;16.39;100.00;102194.22;4964591;28;20064;-64
2022/07/02 06:01:19;;;;;;;8.00;3.50;;;;;;;16.56;100.00;102203.16;4963514;28;20051;-64
2022/07/02 06:03:46;;;;;;;8.13;3.25;;;;;;;16.70;100.00;102199.13;4964574;28;20526;-64
2022/07/02 06:08:58;;;;;;;3.92;2.42;;;;;;;16.93;100.00;102201.31;4960274;28;20054;-64
2022/07/02 06:11:24;;;;;;;8.18;2.60;;;;;;;17.02;100.00;102202.22;4969413;28;20057;-64
2022/07/02 06:13:50;;;;;;;4.95;2.30;;;;;;;17.06;100.00;102196.44;4966148;28;20419;-64
2022/07/02 06:16:17;;;;;;;3.60;1.85;;;;;;;17.21;100.00;102196.72;4956202;28;20057;-64
2022/07/02 06:18:44;;;;;;;6.63;1.92;;;;;;;17.26;100.00;102199.72;4970876;28;20064;-64
2022/07/02 06:21:10;;;;;;;3.53;2.00;;;;;;;17.36;100.00;102195.13;4964450;28;20065;-63
2022/07/02 06:23:37;;;;;;;4.22;1.58;;;;;;;17.46;100.00;102200.31;4971040;28;20042;-64
2022/07/02 06:26:03;;;;;;;4.30;1.80;;;;;;;17.50;100.00;102192.88;4965073;28;20135;-64
2022/07/02 06:28:29;;;;;;;2.35;1.40;;;;;;;17.63;100.00;102201.22;4961418;28;20043;-65
2022/07/02 06:30:56;;;;;;;3.13;1.30;;;;;;;17.67;100.00;102207.88;4962183;28;20063;-64
2022/07/02 06:33:22;;;;;;;7.03;1.80;;;;;;;17.77;100.00;102197.13;4960055;28;20058;-64
2022/07/02 06:35:49;;;;;;;3.33;1.65;;;;;;;17.81;100.00;102208.25;4971236;28;20046;-61
2022/07/02 06:38:15;;;;;;;4.00;1.65;;;;;;;17.85;100.00;102209.63;4964797;28;20055;-63
2022/07/02 06:40:42;;;;;;;3.55;1.58;;;;;;;17.88;100.00;102199.53;4969578;28;20051;-64
2022/07/02 06:43:08;;;;;;;6.15;1.98;;;;;;;17.95;100.00;102208.53;4956076;28;20477;-64
2022/07/02 06:45:35;;;;;;;3.40;1.55;;;;;;;18.00;100.00;102204.53;4966229;28;20054;-64
2022/07/02 06:48:02;;;;;;;6.63;1.55;;;;;;;18.04;100.00;102200.56;4964461;28;20047;-64
2022/07/02 06:50:28;;;;;;;2.92;1.33;;;;;;;18.12;100.00;102209.38;4964119;28;20498;-63
2022/07/02 06:53:00;;;;;;;3.17;1.30;;;;;;;18.18;100.00;102211.38;4970616;28;20055;-64
2022/07/02 06:55:27;;;;;;;5.75;1.88;;;;;;;18.17;100.00;102215.03;4960539;28;20055;-64
2022/07/02 06:57:53;;;;;;;4.88;1.50;;;;;;;18.20;100.00;102216.53;4965747;28;20416;-65
2022/07/02 07:00:23;;;;;;;4.57;1.48;;;;;;;18.16;100.00;102221.34;4963147;28;20110;-64
2022/07/02 07:02:50;;;;;;;4.50;1.20;;;;;;;18.17;100.00;102223.00;4965736;28;20469;-65
2022/07/02 07:05:21;;;;;;;3.60;1.67;;;;;;;18.23;100.00;102218.88;4963682;28;20511;-63
2022/07/02 07:07:48;;;;;;;3.30;1.00;;;;;;;18.25;100.00;102224.84;4962741;28;20057;-65
2022/07/02 07:10:14;;;;;;;1.80;0.90;;;;;;;18.30;100.00;102225.19;4962902;28;20046;-64
2022/07/02 07:12:40;;;;;;;4.55;0.98;;;;;;;18.29;98.50;102215.56;4959535;28;20080;-64
2022/07/02 07:15:09;;;;;;;2.05;0.90;;;;;;;18.35;100.00;102216.75;4968852;28;20046;-64
2022/07/02 07:17:36;;;;;;;2.58;0.82;;;;;;;18.46;99.50;102224.38;4964293;28;20606;-64
2022/07/02 07:20:03;;;;;;;3.65;0.80;;;;;;;18.57;98.83;102223.22;4969848;28;20089;-64
2022/07/02 07:22:30;;;;;;;0.70;0.50;;;;;;;18.65;93.91;102227.72;4966317;28;20050;-63
2022/07/02 07:24:56;;;;;;;3.63;1.10;;;;;;;18.70;93.00;102220.06;4957756;28;20375;-64
2022/07/02 07:27:22;;;;;;;2.15;0.98;;;;;;;18.83;95.97;102225.75;4968905;28;20502;-64
2022/07/02 07:29:49;;;;;;;1.33;0.50;;;;;;;18.86;94.56;102213.97;4963141;28;20051;-66
2022/07/02 07:32:15;;;;;;;2.13;0.80;;;;;;;18.82;92.98;102213.47;4961986;28;20507;-64
2022/07/02 07:34:42;;;;;;;0.90;0.60;;;;;;;18.89;98.15;102226.91;4966072;28;20050;-63
2022/07/02 07:37:11;;;;;;;1.65;0.57;;;;;;;18.81;93.80;102229.56;4957366;28;20109;-64
2022/07/02 07:39:37;;;;;;;3.13;1.08;;;;;;;18.77;94.84;102232.53;4964253;28;20562;-64
2022/07/02 07:42:04;;;;;;;2.08;0.82;;;;;;;18.80;96.66;102226.09;4963847;28;20054;-64
2022/07/02 07:44:31;;;;;;;1.02;0.70;;;;;;;18.77;94.84;102221.06;4968341;28;20073;-65
2022/07/02 07:46:58;;;;;;;5.20;0.97;;;;;;;18.82;98.02;102208.16;4957232;28;20054;-64
2022/07/02 07:49:24;;;;;;;3.85;0.73;;;;;;;18.83;95.70;102208.97;4964960;28;20819;-63
2022/07/02 07:51:51;;;;;;;2.22;0.80;;;;;;;18.91;94.88;102215.09;4960036;28;20072;-63
2022/07/02 07:54:18;;;;;;;6.63;0.90;;;;;;;18.90;94.46;102212.63;4961125;28;20487;-64
2022/07/02 07:56:44;;;;;;;1.27;0.80;;;;;;;19.00;93.31;102212.47;4968387;28;20062;-64
2022/07/02 07:59:11;;;;;;;2.60;0.98;;;;;;;18.98;95.00;102203.81;4960207;28;20081;-62
2022/07/02 08:01:37;;;;;;;3.63;0.90;;;;;;;19.09;97.27;102208.75;4969513;28;20057;-63
2022/07/02 08:04:04;;;;;;;3.17;0.80;;;;;;;19.14;97.25;102209.09;4958886;28;20801;-64
2022/07/02 08:06:30;;;;;;;6.28;1.10;;;;;;;19.16;95.52;102210.59;4963484;28;20223;-64
2022/07/02 08:08:57;;;;;;;3.75;0.85;;;;;;;19.17;93.26;102204.28;4965773;28;20050;-64
2022/07/02 08:11:24;;;;;;;2.65;0.90;;;;;;;19.19;94.44;102197.94;4955926;28;20055;-63
2022/07/02 08:13:50;;;;;;;2.75;1.00;;;;;;;19.23;94.89;102194.78;4968549;28;20053;-63
2022/07/02 08:16:17;;;;;;;2.60;0.80;;;;;;;19.29;94.87;102198.59;4962292;28;20057;-63
2022/07/02 08:18:43;;;;;;;3.05;0.65;;;;;;;19.35;96.02;102193.41;4964486;28;20051;-63
2022/07/02 08:21:10;;;;;;;4.95;1.10;;;;;;;19.44;93.73;102198.72;4956316;28;20046;-64
2022/07/02 08:23:36;;;;;;;4.00;1.10;;;;;;;19.52;95.81;102190.69;4967716;28;20133;-63
2022/07/02 08:26:03;;;;;;;3.55;1.30;;;;;;;19.64;95.14;102185.81;4968203;28;20133;-63
2022/07/02 08:28:29;;;;;;;2.47;0.95;;;;;;;19.85;97.86;102191.41;4960743;28;20051;-63
2022/07/02 08:30:56;;;;;;;5.43;1.48;;;;;;;19.93;92.25;102199.38;4966236;28;20752;-64
2022/07/02 08:33:22;;;;;;;1.58;0.70;;;;;;;20.07;95.70;102199.59;4954539;28;20077;-64
2022/07/02 08:35:49;;;;;;;4.53;1.02;;;;;;;20.16;91.55;102193.22;4963124;28;20050;-63
2022/07/02 08:38:16;;;;;;;4.93;1.00;;;;;;;20.33;90.12;102189.44;4961805;28;20138;-64
2022/07/02 08:40:43;;;;;;;1.92;1.15;;;;;;;20.59;89.23;102196.28;4955030;28;20055;-63
2022/07/02 08:43:14;;;;;;;1.30;0.70;;;;;;;20.98;90.15;102191.75;4968211;28;20490;-64
2022/07/02 08:45:42;;;;;;;3.65;1.00;;;;;;;21.39;91.49;102191.31;4958433;28;20065;-63
2022/07/02 08:48:12;;;;;;;;;;;;;;;21.76;88.84;102182.38;4957635;28;20671;-63
2022/07/02 08:50:40;;;;;;;3.53;0.98;;;;;;;22.04;86.55;102181.66;4962044;28;20020;-64
2022/07/02 08:53:07;;;;;;;3.80;0.80;;;;;;;22.38;87.14;102177.47;4962824;28;20050;-63
2022/07/02 08:55:35;;;;;;;2.53;0.90;;;;;;;22.57;84.08;102184.03;4968592;28;20046;-62
2022/07/02 08:58:02;;;;;;;4.50;1.10;;;;;;;22.91;83.36;102172.53;4962649;28;20051;-63
2022/07/02 09:00:29;;;;;;;5.22;0.90;;;;;;;23.09;84.22;102180.94;4964334;28;20071;-63
2022/07/02 09:03:00;;;;;;;4.10;1.00;;;;;;;23.40;81.92;102166.25;4953668;28;20583;-63
2022/07/02 09:05:28;;;;;;;4.50;1.30;;;;;;;23.59;82.77;102175.41;4967463;28;20142;-64
2022/07/02 09:07:55;;;;;;;2.47;0.77;;;;;;;23.81;82.60;102176.09;4962371;28;20503;-63
2022/07/02 09:10:24;;;;;;;3.47;1.08;;;;;;;24.13;79.70;102168.38;4971422;28;20042;-63
2022/07/02 09:12:53;;;;;;;4.43;1.13;;;;;;;24.34;80.17;102167.34;4967128;28;20078;-62
2022/07/02 09:15:20;;;;;;;4.53;0.90;;;;;;;24.40;79.28;102165.69;4965104;28;20109;-63
2022/07/02 09:17:48;;;;;;;4.55;1.02;;;;;;;24.44;76.23;102170.47;4964081;28;20058;-64
2022/07/02 09:20:15;;;;;;;3.60;1.00;;;;;;;24.85;81.20;102161.38;4963733;28;20141;-64
2022/07/02 09:22:45;;;;;;;3.25;1.10;;;;;;;25.09;76.20;102167.09;4972132;28;20078;-64
2022/07/02 09:25:24;;;;;;;3.60;1.02;;;;;;;25.24;78.08;102161.50;4965916;28;20576;-65
2022/07/02 09:28:03;;;;;;;3.47;1.13;;;;;;;25.44;75.01;102162.25;4961950;28;20050;-62
2022/07/02 09:30:31;;;;;;;3.17;1.00;;;;;;;25.33;75.26;102160.22;4960320;28;20064;-64
2022/07/02 09:35:42;;;;;;;2.92;0.90;;;;;;;25.88;74.95;102150.88;4964176;28;20060;-64
2022/07/02 09:38:10;;;;;;;4.35;1.10;;;;;;;25.89;73.91;102152.50;4965165;28;20055;-64
2022/07/02 09:40:37;;;;;;;;;;;;;;;25.65;73.05;102152.22;4972607;28;20082;-65
2022/07/02 09:43:04;;;;;;;3.25;1.02;;;;;;;25.94;76.15;102148.16;4960053;28;20025;-65
2022/07/02 09:45:30;;;;;;;4.18;1.30;;;;;;;25.58;72.21;102157.66;4966656;28;20083;-64
2022/07/02 09:48:02;;;;;;;4.75;1.10;;;;;;;25.70;76.15;102147.03;4958836;28;20054;-64
2022/07/02 09:50:29;;;;;;;2.53;1.00;;;;;;;25.98;76.21;102143.19;4949940;28;20141;-64
2022/07/02 09:52:57;;;;;;;4.28;1.23;;;;;;;25.96;72.16;102145.25;4970616;28;20062;-64
2022/07/02 09:55:30;;;;;;;3.55;0.90;;;;;;;26.02;71.26;102136.31;4962404;28;20132;-63
2022/07/02 09:58:01;;;;;;;3.63;1.10;;;;;;;26.14;72.73;102147.19;4961920;28;20404;-63
2022/07/02 10:00:33;;;;;;;3.25;1.00;;;;;;;26.38;73.87;102135.63;4963360;28;20066;-65
2022/07/02 10:03:02;;;;;;;3.35;1.15;;;;;;;26.24;69.58;102139.44;4970742;28;20062;-64
2022/07/02 10:05:32;;;;;;;2.83;1.02;;;;;;;26.22;71.93;102139.66;4964501;28;20082;-64
2022/07/02 10:08:00;;;;;;;4.40;0.93;;;;;;;26.00;69.40;102139.22;4961970;28;20081;-64
2022/07/02 10:10:41;;;;;;;6.20;1.20;;;;;;;26.04;71.21;102137.75;4954609;28;20055;-63
2022/07/02 10:13:10;;;;;;;2.70;1.10;;;;;;;26.17;72.65;102130.63;4960499;28;20062;-62
2022/07/02 10:15:47;;;;;;;4.70;1.35;;;;;;;26.33;71.16;102127.38;4968994;28;20035;-63
2022/07/02 10:18:14;;;;;;;6.18;1.30;;;;;;;25.60;71.12;102123.31;4962325;28;20054;-63
2022/07/02 10:20:41;;;;;;;3.63;1.20;;;;;;;25.62;70.85;102123.13;4967044;28;20058;-63
2022/07/02 10:23:08;;;;;;;3.50;1.05;;;;;;;25.60;71.39;102123.31;4956382;28;20643;-64
2022/07/02 10:25:34;;;;;;;2.95;1.42;;;;;;;25.72;71.98;102119.94;4962717;28;20057;-64
2022/07/02 10:28:02;;;;;;;2.72;0.85;;;;;;;25.95;72.16;102109.50;4962529;28;20054;-64
2022/07/02 10:30:32;;;;;;;4.70;1.13;;;;;;;25.72;71.64;102111.88;4963442;28;20061;-63
2022/07/02 10:33:24;;;;;;;4.13;1.00;;;;;;;25.96;69.88;102110.31;4961402;28;20344;-64
2022/07/02 10:35:51;;;;;;;8.02;1.42;;;;;;;26.11;71.79;102105.44;4965192;28;20483;-64
2022/07/02 10:38:31;;;;;;;5.20;1.03;;;;;;;26.12;71.56;102109.75;4966114;28;20510;-63
2022/07/02 10:40:58;;;;;;;3.58;0.95;;;;;;;26.30;68.17;102103.59;4954185;28;20058;-63
2022/07/02 10:43:26;;;;;;;3.05;1.15;;;;;;;26.49;69.65;102103.66;4966356;28;20106;-64
2022/07/02 10:46:11;;;;;;;5.32;1.30;;;;;;;26.51;66.99;102090.81;4954240;28;20087;-63
2022/07/02 10:48:52;;;;;;;2.85;1.20;;;;;;;26.61;68.62;102083.88;4960605;28;20102;-63
2022/07/02 10:51:31;;;;;;;3.55;0.90;;;;;;;27.01;69.35;102093.38;4963327;28;20055;-63
2022/07/02 10:54:02;;;;;;;2.78;1.00;;;;;;;26.77;66.76;102101.31;4962602;28;20082;-63
2022/07/02 10:56:30;;;;;;;5.75;1.10;;;;;;;26.71;67.88;102086.06;4962430;28;20575;-63
2022/07/02 10:58:57;;;;;;;3.38;1.10;;;;;;;26.85;68.47;102086.72;4959906;28;20419;-63
2022/07/02 11:01:24;;;;;;;3.08;1.00;;;;;;;27.09;67.51;102082.31;4969969;28;20051;-63
2022/07/02 11:03:55;;;;;;;2.25;0.80;;;;;;;27.40;68.27;102084.00;4955635;28;20471;-64
2022/07/02 11:06:27;;;;;;;6.63;1.13;;;;;;;27.22;66.75;102084.00;4951498;28;20050;-63
2022/07/02 11:08:56;;;;;;;4.07;0.90;;;;;;;27.30;66.96;102086.41;4957887;28;20073;-64
2022/07/02 11:11:35;;;;;;;2.67;1.20;;;;;;;27.44;67.28;102078.16;4965474;28;20073;-64
2022/07/02 11:14:01;;;;;;;3.92;1.50;;;;;;;27.59;65.37;102086.63;4962544;28;20130;-63
2022/07/02 11:16:37;;;;;;;4.43;1.50;;;;;;;27.18;67.61;102078.25;4969629;28;20078;-64
2022/07/02 11:19:17;;;;;;;4.88;1.40;;;;;;;26.86;68.25;102074.94;4970075;28;20054;-64
2022/07/02 11:21:44;;;;;;;3.55;1.30;;;;;;;27.09;68.93;102068.84;4959948;28;20422;-64
2022/07/02 11:24:14;;;;;;;8.65;1.58;;;;;;;27.02;68.84;102068.09;4969751;28;20053;-64
2022/07/02 11:26:42;;;;;;;6.97;1.60;;;;;;;26.83;69.44;102070.81;4963595;28;20063;-63
2022/07/02 11:29:09;;;;;;;4.15;1.17;;;;;;;26.97;69.69;102059.88;4966324;28;20059;-64
2022/07/02 11:31:37;;;;;;;3.58;1.23;;;;;;;26.89;66.31;102062.88;4961971;28;20543;-65
2022/07/02 11:34:04;;;;;;;2.50;1.30;;;;;;;26.75;68.45;102063.03;4960325;28;20082;-63